Paonia, Colorado
Current Conditions -  °F | °C
As of 6:35 AM on Friday 24 Oct 2014 (Local Time) from KAJZ Reporting Station
Clear Clear  
Wind Chill: 40°   Ceiling: Unl
Heat Index: 40°   Visibility: 10mi
Dew Point: 33°   Wind: 3mph
Humidity: 74%   Direction: 160°SSE
Pressure: 30.32"   Gusts: NA
Location:  38.87°N, 107.59°W
Report Text: KAJZ 241235Z AUTO 16003KT 10SM CLR 05/01 A3032 RMK AO2 T00470005
Loading
Personal Weather Stations






























Interactive Weather Map
Tropical Storm Tracking
New forecast layout! Learn more

10-Day Weather Forecast

Advertisements
Track Severe Weather on mobile